createdAt,value
2023-04-09T00:00:33.753Z,5.31
2023-04-09T00:03:18.308Z,5.30
2023-04-09T00:06:03.698Z,5.20
2023-04-09T00:08:48.261Z,5.11
2023-04-09T00:11:32.837Z,5.17
2023-04-09T00:14:16.385Z,5.26
2023-04-09T00:16:59.910Z,5.13
2023-04-09T00:19:43.622Z,4.89
2023-04-09T00:22:27.236Z,5.02
2023-04-09T00:25:10.928Z,5.06
2023-04-09T00:27:57.522Z,5.07
2023-04-09T00:30:41.232Z,4.67
2023-04-09T00:33:31.092Z,4.66
2023-04-09T00:36:14.691Z,4.81
2023-04-09T00:38:59.063Z,4.75
2023-04-09T00:41:42.537Z,4.81
2023-04-09T00:44:26.882Z,4.49
2023-04-09T00:47:10.749Z,4.48
2023-04-09T00:49:55.785Z,4.59
2023-04-09T00:52:39.614Z,4.57
2023-04-09T00:55:23.980Z,4.54
2023-04-09T00:58:08.404Z,4.35
2023-04-09T01:00:52.060Z,4.31
2023-04-09T01:03:36.622Z,4.29
2023-04-09T01:06:49.667Z,4.41
2023-04-09T01:14:01.405Z,4.26
2023-04-09T01:16:53.194Z,4.33
2023-04-09T01:20:14.616Z,4.12
2023-04-09T01:23:11.197Z,3.96
2023-04-09T01:26:32.638Z,4.04
2023-04-09T01:29:20.128Z,3.85
2023-04-09T01:32:06.348Z,4.09
2023-04-09T01:34:52.508Z,4.07
2023-04-09T01:37:39.114Z,4.03
2023-04-09T01:40:23.011Z,3.93
2023-04-09T01:43:08.938Z,3.99
2023-04-09T01:45:53.896Z,3.94
2023-04-09T01:48:39.254Z,3.62
2023-04-09T01:51:23.470Z,3.80
2023-04-09T01:54:07.044Z,3.85
2023-04-09T01:56:50.809Z,3.87
2023-04-09T02:08:11.097Z,3.54
2023-04-09T02:11:00.364Z,3.57
2023-04-09T02:13:45.769Z,3.69
2023-04-09T02:16:33.066Z,3.66
2023-04-09T02:19:16.605Z,3.73
2023-04-09T02:22:00.168Z,3.76
2023-04-09T02:24:44.023Z,3.67
2023-04-09T02:27:27.792Z,3.54
2023-04-09T02:30:11.754Z,3.60
2023-04-09T02:32:55.708Z,3.81
2023-04-09T02:35:39.345Z,3.66
2023-04-09T02:38:22.915Z,3.24
2023-04-09T02:41:06.498Z,3.25
2023-04-09T02:43:50.158Z,3.05
2023-04-09T02:46:33.823Z,3.20
2023-04-09T02:49:17.411Z,3.31
2023-04-09T02:52:01.568Z,3.34
2023-04-09T02:54:45.304Z,2.87
2023-04-09T02:57:28.899Z,3.17
2023-04-09T03:00:13.534Z,3.19
2023-04-09T03:02:58.163Z,3.12
2023-04-09T03:05:42.004Z,3.05
2023-04-09T03:08:25.771Z,2.93
2023-04-09T03:11:09.359Z,2.97
2023-04-09T03:13:52.999Z,3.12
2023-04-09T03:16:36.533Z,3.02
2023-04-09T03:19:20.050Z,2.90
2023-04-09T03:22:03.740Z,3.02
2023-04-09T03:24:48.269Z,2.95
2023-04-09T03:27:32.765Z,3.08
2023-04-09T03:30:18.102Z,2.88
2023-04-09T03:33:02.466Z,2.73
2023-04-09T03:35:49.191Z,2.94
2023-04-09T03:38:36.148Z,3.01
2023-04-09T03:41:27.402Z,3.04
2023-04-09T03:44:12.718Z,2.87
2023-04-09T03:47:12.867Z,2.81
2023-04-09T03:49:57.060Z,2.69
2023-04-09T03:52:44.039Z,2.91
2023-04-09T03:55:28.267Z,3.02
2023-04-09T03:58:12.675Z,2.23
2023-04-09T04:00:56.665Z,2.05
2023-04-09T04:03:54.577Z,2.41
2023-04-09T04:06:44.967Z,2.22
2023-04-09T04:09:53.664Z,2.55
2023-04-09T04:12:37.430Z,2.62
2023-04-09T04:15:25.444Z,2.53
2023-04-09T04:18:12.202Z,2.65
2023-04-09T04:21:05.274Z,2.67
2023-04-09T04:23:53.146Z,2.61
2023-04-09T04:26:40.872Z,2.57
2023-04-09T04:29:25.406Z,2.43
2023-04-09T04:32:14.968Z,2.41
2023-04-09T04:34:58.564Z,2.31
2023-04-09T04:37:43.035Z,2.27
2023-04-09T04:40:26.697Z,2.21
2023-04-09T04:43:15.539Z,2.23
2023-04-09T04:46:00.237Z,2.33
2023-04-09T04:48:46.227Z,2.55
2023-04-09T04:51:32.397Z,2.48
2023-04-09T04:54:23.970Z,2.54
2023-04-09T04:57:11.576Z,2.63
2023-04-09T04:59:58.437Z,2.55
2023-04-09T05:02:42.304Z,2.36
2023-04-09T05:05:36.502Z,2.03
2023-04-09T05:08:20.117Z,2.07
2023-04-09T05:11:07.131Z,2.18
2023-04-09T05:13:54.591Z,2.12
2023-04-09T05:16:40.342Z,2.28
2023-04-09T05:19:24.586Z,2.41
2023-04-09T05:22:14.308Z,2.65
2023-04-09T05:24:57.931Z,2.76
2023-04-09T05:27:42.357Z,2.79
2023-04-09T05:30:27.262Z,2.86
2023-04-09T05:33:12.346Z,2.95
2023-04-09T05:35:56.491Z,3.10
2023-04-09T05:38:40.077Z,3.09
2023-04-09T05:41:23.597Z,3.15
2023-04-09T05:44:23.138Z,3.33
2023-04-09T05:47:09.393Z,3.11
2023-04-09T05:50:06.924Z,3.32
2023-04-09T05:52:51.904Z,3.63
2023-04-09T05:55:38.734Z,3.58
2023-04-09T05:58:47.919Z,3.34
2023-04-09T06:02:16.037Z,3.42
2023-04-09T06:49:03.126Z,3.46
2023-04-09T06:51:47.500Z,3.09
2023-04-09T06:54:31.787Z,3.28
2023-04-09T06:57:15.919Z,3.36
2023-04-09T06:59:59.643Z,3.91
2023-04-09T07:02:43.461Z,4.03
2023-04-09T07:05:27.235Z,3.95
2023-04-09T07:08:11.831Z,4.08
2023-04-09T07:10:55.569Z,4.03
2023-04-09T07:13:39.142Z,3.80
2023-04-09T07:16:22.831Z,4.07
2023-04-09T07:19:07.625Z,4.24
2023-04-09T07:21:51.227Z,3.76
2023-04-09T07:24:34.780Z,4.37
2023-04-09T07:27:18.404Z,4.42
2023-04-09T07:30:02.031Z,4.67
2023-04-09T07:32:45.720Z,4.80
2023-04-09T07:35:29.390Z,4.57
2023-04-09T07:38:13.162Z,4.74
2023-04-09T07:40:56.768Z,4.99
2023-04-09T07:43:41.577Z,5.45
2023-04-09T07:46:25.131Z,4.94
2023-04-09T07:49:08.774Z,5.06
2023-04-09T07:51:52.528Z,5.52
2023-04-09T07:54:36.233Z,5.93
2023-04-09T07:57:19.890Z,6.41
2023-04-09T08:00:04.079Z,5.91
2023-04-09T08:02:57.693Z,5.62
2023-04-09T08:05:41.510Z,5.96
2023-04-09T08:08:25.140Z,6.32
2023-04-09T08:11:08.739Z,5.79
2023-04-09T08:13:56.349Z,5.82
2023-04-09T08:16:46.387Z,6.15
2023-04-09T08:19:30.203Z,6.17
2023-04-09T08:22:13.824Z,6.47
2023-04-09T08:24:59.453Z,6.26
2023-04-09T08:27:44.489Z,6.06
2023-04-09T08:30:28.416Z,6.44
2023-04-09T08:33:11.988Z,6.63
2023-04-09T08:35:55.629Z,6.48
2023-04-09T08:38:39.199Z,7.06
2023-04-09T08:41:25.782Z,7.09
2023-04-09T08:44:09.391Z,6.77
2023-04-09T08:46:53.163Z,6.75
2023-04-09T08:49:36.914Z,7.15
2023-04-09T08:52:35.101Z,8.41
2023-04-09T08:55:18.712Z,8.79
2023-04-09T08:58:07.393Z,8.95
2023-04-09T09:00:50.945Z,9.53
2023-04-09T09:04:02.235Z,8.52
2023-04-09T09:06:45.975Z,7.36
2023-04-09T09:09:29.998Z,8.81
2023-04-09T09:12:43.176Z,7.98
2023-04-09T09:15:29.776Z,7.99
2023-04-09T09:18:13.591Z,8.63
2023-04-09T09:21:15.177Z,8.33
2023-04-09T09:23:59.220Z,9.18
2023-04-09T09:26:43.860Z,8.38
2023-04-09T09:29:28.783Z,9.66
2023-04-09T09:32:14.229Z,8.91
2023-04-09T09:35:07.102Z,9.47
2023-04-09T09:38:03.373Z,9.24
2023-04-09T09:40:47.924Z,9.02
2023-04-09T09:43:42.395Z,8.79
2023-04-09T09:46:27.229Z,9.10
2023-04-09T09:49:10.865Z,9.83
2023-04-09T09:51:59.608Z,10.37
2023-04-09T09:54:52.434Z,9.88
2023-04-09T09:57:42.377Z,8.88
2023-04-09T10:00:29.023Z,10.22
2023-04-09T10:03:21.408Z,9.76
2023-04-09T10:06:05.828Z,9.98
2023-04-09T10:08:51.854Z,9.67
2023-04-09T10:11:37.406Z,10.34
2023-04-09T10:14:22.744Z,11.03
2023-04-09T10:17:07.029Z,11.48
2023-04-09T10:20:11.768Z,12.10
2023-04-09T10:22:57.640Z,12.29
2023-04-09T10:25:42.412Z,12.89
2023-04-09T10:28:25.939Z,9.96
2023-04-09T10:31:09.628Z,9.79
2023-04-09T10:33:53.999Z,10.03
2023-04-09T10:36:37.576Z,10.15
2023-04-09T10:39:21.977Z,10.63
2023-04-09T10:42:13.480Z,10.49
2023-04-09T10:45:16.928Z,10.32
2023-04-09T10:48:03.329Z,11.43
2023-04-09T10:50:50.470Z,11.43
2023-04-09T10:53:34.038Z,10.81
2023-04-09T10:56:17.647Z,11.42
2023-04-09T10:59:01.250Z,11.32
2023-04-09T11:01:54.700Z,10.71
2023-04-09T11:05:16.595Z,10.23
2023-04-09T11:08:28.895Z,10.76
2023-04-09T11:11:13.400Z,10.71
2023-04-09T11:14:01.812Z,11.74
2023-04-09T11:16:48.181Z,10.43
2023-04-09T11:19:34.858Z,10.91
2023-04-09T11:22:18.487Z,11.64
2023-04-09T11:25:03.220Z,10.21
2023-04-09T11:27:47.430Z,10.97
2023-04-09T11:30:31.414Z,10.09
2023-04-09T11:33:16.885Z,10.06
2023-04-09T11:36:05.108Z,10.84
2023-04-09T11:38:51.030Z,11.17
2023-04-09T11:41:36.928Z,11.13
2023-04-09T11:44:23.718Z,11.40
2023-04-09T11:47:09.534Z,11.94
2023-04-09T11:49:53.658Z,11.69
2023-04-09T11:52:38.019Z,11.61
2023-04-09T11:55:29.829Z,11.64
2023-04-09T11:58:13.529Z,10.87
2023-04-09T12:00:59.410Z,11.30
2023-04-09T12:03:43.356Z,11.50
2023-04-09T12:06:28.724Z,11.22
2023-04-09T12:09:14.319Z,11.86
2023-04-09T12:11:59.789Z,12.64
2023-04-09T12:14:47.665Z,13.02
2023-04-09T12:17:34.413Z,12.56
2023-04-09T12:20:35.058Z,12.01
2023-04-09T12:23:18.609Z,11.71
2023-04-09T12:26:02.619Z,12.23
2023-04-09T12:28:48.873Z,12.88
2023-04-09T12:31:32.611Z,12.57
2023-04-09T12:34:16.438Z,12.17
2023-04-09T12:37:00.054Z,12.29
2023-04-09T12:39:43.619Z,12.96
2023-04-09T12:42:27.222Z,12.28
2023-04-09T12:45:15.735Z,12.88
2023-04-09T12:47:59.366Z,12.98
2023-04-09T12:50:42.933Z,12.05
2023-04-09T12:53:26.816Z,12.86
2023-04-09T12:56:10.566Z,12.33
2023-04-09T12:58:54.484Z,11.76
2023-04-09T13:01:39.225Z,12.89
2023-04-09T13:04:23.837Z,12.66
2023-04-09T13:07:07.624Z,12.83
2023-04-09T13:09:51.325Z,12.59
2023-04-09T13:12:34.888Z,12.55
2023-04-09T13:15:18.421Z,14.23
2023-04-09T13:18:01.992Z,13.17
2023-04-09T13:20:45.648Z,13.47
2023-04-09T13:23:29.259Z,14.60
2023-04-09T13:26:21.924Z,14.97
2023-04-09T13:29:08.416Z,12.86
2023-04-09T13:31:52.005Z,14.89
2023-04-09T13:34:35.793Z,15.60
2023-04-09T13:37:19.382Z,14.23
2023-04-09T13:40:03.078Z,13.21
2023-04-09T13:42:46.760Z,13.84
2023-04-09T13:45:30.534Z,13.83
2023-04-09T13:48:15.595Z,12.92
2023-04-09T13:50:59.285Z,13.75
2023-04-09T13:53:43.433Z,14.10
2023-04-09T13:56:27.639Z,13.43
2023-04-09T13:59:11.725Z,13.84
2023-04-09T14:01:55.622Z,13.51
2023-04-09T14:04:39.412Z,13.42
2023-04-09T14:07:23.191Z,13.49
2023-04-09T14:10:08.004Z,13.94
2023-04-09T14:12:51.727Z,14.04
2023-04-09T14:15:35.432Z,14.48
2023-04-09T14:18:19.069Z,13.12
2023-04-09T14:21:02.983Z,14.77
2023-04-09T14:23:46.590Z,13.41
2023-04-09T14:26:30.632Z,13.79
2023-04-09T14:29:14.285Z,14.87
2023-04-09T14:31:57.910Z,14.93
2023-04-09T14:34:41.576Z,13.56
2023-04-09T14:37:25.126Z,13.45
2023-04-09T14:40:09.569Z,15.08
2023-04-09T14:42:53.143Z,15.57
2023-04-09T14:45:37.048Z,14.18
2023-04-09T14:48:20.826Z,13.70
2023-04-09T14:51:04.565Z,13.36
2023-04-09T14:53:48.705Z,14.28
2023-04-09T14:56:32.779Z,14.69
2023-04-09T14:59:16.329Z,13.98
2023-04-09T15:01:59.961Z,13.72
2023-04-09T15:04:43.649Z,13.19
2023-04-09T15:07:28.454Z,14.07
2023-04-09T15:10:12.361Z,15.10
2023-04-09T15:12:55.917Z,15.34
2023-04-09T15:15:45.058Z,14.47
2023-04-09T15:18:29.153Z,14.86
2023-04-09T15:21:12.672Z,15.15
2023-04-09T15:23:59.040Z,14.24
2023-04-09T15:26:42.686Z,15.15
2023-04-09T15:29:26.239Z,14.89
2023-04-09T15:32:10.228Z,13.11
2023-04-09T15:34:53.838Z,13.61
2023-04-09T15:37:37.369Z,13.55
2023-04-09T15:40:21.202Z,14.08
2023-04-09T15:43:04.731Z,13.19
2023-04-09T15:45:48.728Z,13.37
2023-04-09T15:48:32.958Z,13.44
2023-04-09T15:51:16.993Z,14.01
2023-04-09T15:54:00.554Z,13.62
2023-04-09T15:56:44.078Z,14.34
2023-04-09T15:59:27.656Z,14.78
2023-04-09T16:02:11.432Z,14.65
2023-04-09T16:04:55.013Z,13.76
2023-04-09T16:07:39.803Z,13.80
2023-04-09T16:10:23.480Z,14.26
2023-04-09T16:13:07.118Z,13.29
2023-04-09T16:15:51.253Z,12.84
2023-04-09T16:18:35.635Z,13.52
2023-04-09T16:21:19.170Z,14.06
2023-04-09T16:24:02.662Z,13.36
2023-04-09T16:26:46.388Z,13.46
2023-04-09T16:29:29.949Z,13.07
2023-04-09T16:32:13.983Z,12.97
2023-04-09T16:35:00.699Z,13.18
2023-04-09T16:37:44.185Z,13.11
2023-04-09T16:40:27.717Z,12.72
2023-04-09T16:43:11.603Z,13.11
2023-04-09T16:45:55.676Z,12.50
2023-04-09T16:48:41.856Z,12.98
2023-04-09T16:51:25.846Z,12.74
2023-04-09T16:54:09.387Z,12.38
2023-04-09T16:56:53.407Z,12.34
2023-04-09T16:59:37.724Z,12.27
2023-04-09T17:02:22.978Z,12.13
2023-04-09T17:05:07.056Z,12.90
2023-04-09T17:07:50.646Z,13.30
2023-04-09T17:10:37.044Z,13.29
2023-04-09T17:13:21.521Z,12.40
2023-04-09T17:16:05.494Z,12.41
2023-04-09T17:18:48.995Z,12.28
2023-04-09T17:21:32.574Z,12.81
2023-04-09T17:24:16.199Z,12.34
2023-04-09T17:26:59.756Z,12.46
2023-04-09T17:29:43.294Z,12.20
2023-04-09T17:32:27.806Z,12.12
2023-04-09T17:35:11.493Z,11.78
2023-04-09T17:37:55.679Z,12.08
2023-04-09T17:40:39.175Z,11.87
2023-04-09T17:43:22.901Z,11.98
2023-04-09T17:46:08.864Z,11.90
2023-04-09T17:48:53.487Z,11.93
2023-04-09T17:51:37.274Z,12.35
2023-04-09T17:54:21.049Z,12.71
2023-04-09T17:57:05.325Z,12.59
2023-04-09T17:59:49.183Z,12.75
2023-04-09T18:02:33.364Z,12.93
2023-04-09T18:05:17.293Z,13.01
2023-04-09T18:08:02.536Z,12.72
2023-04-09T18:11:04.812Z,12.57
2023-04-09T18:13:54.870Z,12.68
2023-04-09T18:16:39.581Z,12.53
2023-04-09T18:19:23.097Z,12.48
2023-04-09T18:22:06.659Z,12.40
2023-04-09T18:24:52.245Z,12.18
2023-04-09T18:27:36.155Z,12.14
2023-04-09T18:30:19.757Z,12.17
2023-04-09T18:33:03.500Z,11.95
2023-04-09T18:35:47.117Z,11.67
2023-04-09T18:38:30.836Z,12.03
2023-04-09T18:41:22.729Z,11.82
2023-04-09T18:44:07.169Z,11.85
2023-04-09T18:46:50.876Z,11.83
2023-04-09T18:49:34.748Z,11.61
2023-04-09T18:52:18.288Z,11.52
2023-04-09T18:55:01.957Z,11.07
2023-04-09T18:57:45.584Z,11.34
2023-04-09T19:00:29.150Z,11.29
2023-04-09T19:03:13.023Z,11.37
2023-04-09T19:05:56.874Z,11.30
2023-04-09T19:08:41.743Z,11.08
2023-04-09T19:11:26.195Z,10.99
2023-04-09T19:14:09.892Z,10.97
2023-04-09T19:16:53.966Z,10.95
2023-04-09T19:19:37.627Z,10.80
2023-04-09T19:22:21.145Z,10.87
2023-04-09T19:25:06.403Z,10.87
2023-04-09T19:27:50.013Z,10.79
2023-04-09T19:30:33.563Z,10.73
2023-04-09T19:33:28.157Z,10.59
2023-04-09T19:36:20.939Z,10.42
2023-04-09T19:39:04.673Z,10.32
2023-04-09T19:41:48.224Z,10.36
2023-04-09T19:44:31.770Z,10.29
2023-04-09T19:47:15.693Z,10.15
2023-04-09T19:50:43.723Z,10.05
2023-04-09T19:53:27.305Z,9.98
2023-04-09T19:56:10.994Z,10.15
2023-04-09T19:58:55.006Z,9.99
2023-04-09T20:01:38.981Z,9.98
2023-04-09T20:04:24.837Z,9.90
2023-04-09T20:07:08.369Z,9.91
2023-04-09T20:09:51.989Z,9.69
2023-04-09T20:12:35.538Z,9.71
2023-04-09T20:15:22.415Z,9.78
2023-04-09T20:18:06.323Z,9.65
2023-04-09T20:20:50.916Z,9.66
2023-04-09T20:23:34.573Z,9.64
2023-04-09T20:26:18.121Z,9.58
2023-04-09T20:29:02.704Z,9.33
2023-04-09T20:31:46.647Z,9.32
2023-04-09T20:34:30.736Z,9.29
2023-04-09T20:37:14.331Z,9.12
2023-04-09T20:39:59.759Z,9.13
2023-04-09T20:42:43.885Z,9.33
2023-04-09T20:45:27.414Z,9.23
2023-04-09T20:48:11.026Z,9.13
2023-04-09T20:50:54.591Z,9.13
2023-04-09T20:53:41.209Z,9.10
2023-04-09T20:56:24.821Z,9.02
2023-04-09T20:59:08.446Z,8.82
2023-04-09T21:01:52.748Z,8.81
2023-04-09T21:04:36.473Z,8.83
2023-04-09T21:07:19.982Z,8.68
2023-04-09T21:10:04.648Z,8.57
2023-04-09T21:12:48.286Z,8.44
2023-04-09T21:15:31.912Z,8.55
2023-04-09T21:18:16.805Z,8.61
2023-04-09T21:21:02.414Z,8.59
2023-04-09T21:23:46.094Z,8.58
2023-04-09T21:26:44.990Z,8.54
2023-04-09T21:29:36.488Z,8.37
2023-04-09T21:32:25.705Z,8.30
2023-04-09T21:35:09.383Z,8.29
2023-04-09T21:37:53.057Z,8.25
2023-04-09T21:40:36.665Z,8.07
2023-04-09T21:43:20.234Z,7.99
2023-04-09T21:46:04.217Z,8.00
2023-04-09T21:48:47.763Z,7.96
2023-04-09T21:51:32.310Z,7.80
2023-04-09T21:54:16.032Z,7.69
2023-04-09T21:57:00.081Z,7.71
2023-04-09T21:59:43.729Z,7.62
2023-04-09T22:02:28.373Z,7.73
2023-04-09T22:05:12.291Z,7.81
2023-04-09T22:07:56.615Z,7.92
2023-04-09T22:10:40.435Z,7.85
2023-04-09T22:13:24.099Z,7.76
2023-04-09T22:16:08.739Z,7.56
2023-04-09T22:18:54.392Z,7.58
2023-04-09T22:21:38.409Z,7.68
2023-04-09T22:24:30.507Z,7.63
2023-04-09T22:27:14.386Z,7.58
2023-04-09T22:29:57.937Z,7.46
2023-04-09T22:32:41.622Z,7.52
2023-04-09T22:35:25.283Z,7.51
2023-04-09T22:38:09.008Z,7.49
2023-04-09T22:40:52.665Z,7.41
2023-04-09T22:43:36.493Z,7.29
2023-04-09T22:46:20.093Z,7.35
2023-04-09T22:49:05.627Z,7.35
2023-04-09T22:51:49.614Z,7.35
2023-04-09T22:54:33.170Z,7.27
2023-04-09T22:57:16.750Z,7.25
2023-04-09T23:00:00.380Z,7.46
2023-04-09T23:02:44.150Z,7.12
2023-04-09T23:05:27.762Z,7.02
2023-04-09T23:08:11.568Z,7.15
2023-04-09T23:10:57.406Z,7.12
2023-04-09T23:13:40.987Z,6.74
2023-04-09T23:16:24.661Z,6.76
2023-04-09T23:19:08.370Z,6.93
2023-04-09T23:21:51.984Z,6.83
2023-04-09T23:24:35.550Z,6.89
2023-04-09T23:27:19.449Z,6.91
2023-04-09T23:30:03.225Z,6.80
2023-04-09T23:32:47.063Z,6.56
2023-04-09T23:35:30.606Z,6.69
2023-04-09T23:38:15.280Z,6.71
2023-04-09T23:40:58.787Z,6.51
2023-04-09T23:43:42.362Z,6.64
2023-04-09T23:46:25.923Z,6.54
2023-04-09T23:49:09.461Z,6.57
2023-04-09T23:51:52.993Z,6.48
2023-04-09T23:54:36.535Z,6.54
2023-04-09T23:57:20.084Z,6.57
